createdAt,value
2023-05-21T00:03:01.559Z,16.22
2023-05-21T00:06:04.698Z,16.24
2023-05-21T00:09:08.009Z,16.30
2023-05-21T00:12:11.098Z,16.30
2023-05-21T00:15:14.356Z,16.32
2023-05-21T00:18:17.069Z,16.36
2023-05-21T00:21:26.031Z,16.38
2023-05-21T00:24:29.688Z,16.39
2023-05-21T00:27:32.343Z,16.41
2023-05-21T00:30:35.114Z,16.42
2023-05-21T00:33:38.369Z,16.38
2023-05-21T00:36:45.699Z,16.34
2023-05-21T00:39:50.961Z,16.31
2023-05-21T00:42:57.168Z,16.29
2023-05-21T00:46:00.747Z,16.25
2023-05-21T00:49:04.190Z,16.19
2023-05-21T00:52:07.414Z,16.18
2023-05-21T00:55:11.078Z,16.17
2023-05-21T00:58:14.478Z,16.15
2023-05-21T01:01:18.498Z,16.03
2023-05-21T01:04:24.885Z,16.00
2023-05-21T01:07:27.814Z,15.98
2023-05-21T01:10:31.010Z,15.90
2023-05-21T01:13:39.522Z,15.80
2023-05-21T01:16:46.448Z,15.67
2023-05-21T01:19:50.635Z,15.62
2023-05-21T01:26:00.144Z,15.37
2023-05-21T01:29:03.343Z,15.35
2023-05-21T01:32:33.394Z,15.31
2023-05-21T01:35:41.928Z,15.25
2023-05-21T01:39:07.774Z,15.21
2023-05-21T01:42:11.517Z,15.14
2023-05-21T01:45:18.643Z,15.12
2023-05-21T01:48:22.408Z,15.06
2023-05-21T01:51:26.288Z,15.04
2023-05-21T01:54:30.811Z,15.04
2023-05-21T01:57:35.989Z,15.05
2023-05-21T02:00:40.085Z,15.02
2023-05-21T02:03:43.374Z,14.97
2023-05-21T02:06:45.890Z,14.90
2023-05-21T02:09:48.611Z,14.87
2023-05-21T02:12:51.387Z,14.85
2023-05-21T02:15:54.928Z,14.78
2023-05-21T02:18:58.066Z,14.82
2023-05-21T02:22:00.949Z,14.79
2023-05-21T02:25:04.705Z,14.79
2023-05-21T02:28:07.910Z,14.78
2023-05-21T02:31:10.698Z,14.70
2023-05-21T02:34:14.319Z,14.65
2023-05-21T02:37:17.650Z,14.58
2023-05-21T02:40:20.662Z,14.51
2023-05-21T02:43:23.221Z,14.45
2023-05-21T02:46:27.177Z,14.41
2023-05-21T02:49:30.112Z,14.38
2023-05-21T02:52:33.494Z,14.38
2023-05-21T02:55:36.445Z,14.39
2023-05-21T02:58:39.771Z,14.44
2023-05-21T03:01:42.500Z,14.46
2023-05-21T03:04:46.832Z,14.44
2023-05-21T03:07:57.715Z,14.41
2023-05-21T03:11:01.289Z,14.38
2023-05-21T03:14:03.906Z,14.35
2023-05-21T03:17:07.944Z,14.26
2023-05-21T03:20:18.736Z,14.25
2023-05-21T03:23:22.094Z,14.17
2023-05-21T03:26:27.525Z,14.22
2023-05-21T03:29:30.809Z,14.17
2023-05-21T03:32:37.984Z,14.23
2023-05-21T03:35:42.284Z,14.23
2023-05-21T03:38:45.353Z,14.27
2023-05-21T03:41:49.298Z,14.34
2023-05-21T03:44:52.613Z,14.41
2023-05-21T03:47:58.291Z,14.42
2023-05-21T03:51:02.736Z,14.52
2023-05-21T03:54:05.896Z,14.57
2023-05-21T03:57:09.548Z,14.56
2023-05-21T04:00:14.028Z,14.65
2023-05-21T04:03:18.291Z,14.74
2023-05-21T04:06:21.871Z,14.91
2023-05-21T04:09:25.090Z,15.04
2023-05-21T04:12:28.380Z,15.07
2023-05-21T04:15:31.379Z,15.33
2023-05-21T04:18:35.006Z,15.43
2023-05-21T04:21:39.048Z,15.48
2023-05-21T04:24:43.671Z,15.60
2023-05-21T04:27:50.390Z,15.77
2023-05-21T04:30:53.484Z,16.03
2023-05-21T04:33:59.675Z,16.09
2023-05-21T04:37:03.164Z,16.30
2023-05-21T04:40:11.561Z,16.51
2023-05-21T04:43:14.689Z,16.69
2023-05-21T04:46:18.167Z,16.80
2023-05-21T04:49:23.015Z,17.11
2023-05-21T04:52:26.963Z,17.39
2023-05-21T04:55:33.932Z,17.59
2023-05-21T04:58:37.301Z,17.80
2023-05-21T05:01:40.096Z,18.13
2023-05-21T05:04:44.173Z,18.32
2023-05-21T05:07:48.221Z,18.47
2023-05-21T05:10:52.130Z,18.60
2023-05-21T05:13:58.867Z,18.78
2023-05-21T05:17:02.036Z,18.93
2023-05-21T05:20:08.369Z,19.02
2023-05-21T05:23:16.865Z,19.03
2023-05-21T05:26:21.457Z,19.22
2023-05-21T05:29:27.128Z,19.42
2023-05-21T05:32:30.168Z,19.79
2023-05-21T05:35:33.199Z,20.23
2023-05-21T05:38:48.031Z,20.66
2023-05-21T05:41:52.386Z,21.08
2023-05-21T05:44:57.210Z,21.41
2023-05-21T05:48:00.997Z,21.59
2023-05-21T05:51:10.722Z,21.08
2023-05-21T05:54:14.885Z,21.09
2023-05-21T05:57:21.283Z,21.40
2023-05-21T06:00:26.803Z,21.32
2023-05-21T06:03:33.493Z,21.05
2023-05-21T06:06:48.775Z,21.15
2023-05-21T06:09:57.444Z,21.57
2023-05-21T06:13:08.865Z,21.58
2023-05-21T06:16:16.290Z,21.42
2023-05-21T06:19:22.840Z,21.28
2023-05-21T06:22:33.688Z,21.76
2023-05-21T06:25:45.071Z,21.88
2023-05-21T06:28:50.161Z,21.44
2023-05-21T06:31:53.840Z,21.73
2023-05-21T06:34:57.819Z,21.70
2023-05-21T06:38:01.112Z,21.74
2023-05-21T06:41:08.863Z,21.92
2023-05-21T06:44:18.722Z,21.62
2023-05-21T06:47:24.285Z,21.90
2023-05-21T06:50:27.914Z,21.81
2023-05-21T06:53:32.222Z,22.21
2023-05-21T06:56:41.829Z,22.05
2023-05-21T06:59:45.312Z,21.91
2023-05-21T07:02:53.142Z,21.99
2023-05-21T07:06:01.379Z,22.04
2023-05-21T07:09:06.126Z,22.39
2023-05-21T07:12:10.028Z,22.47
2023-05-21T07:15:13.836Z,22.68
2023-05-21T07:18:22.547Z,22.45
2023-05-21T07:21:26.142Z,22.92
2023-05-21T07:24:31.147Z,23.14
2023-05-21T07:27:36.913Z,23.20
2023-05-21T07:30:45.008Z,23.17
2023-05-21T07:33:51.999Z,23.55
2023-05-21T07:37:02.924Z,23.83
2023-05-21T07:40:09.238Z,23.84
2023-05-21T07:43:13.174Z,23.64
2023-05-21T07:46:18.825Z,23.93
2023-05-21T07:49:27.828Z,23.90
2023-05-21T07:52:35.840Z,23.52
2023-05-21T07:55:47.743Z,23.56
2023-05-21T07:58:53.762Z,24.06
2023-05-21T08:02:08.456Z,24.30
2023-05-21T08:05:19.499Z,23.67
2023-05-21T08:08:23.625Z,23.87
2023-05-21T08:11:28.620Z,23.79
2023-05-21T08:14:36.908Z,23.73
2023-05-21T08:17:56.893Z,24.12
2023-05-21T08:21:01.762Z,24.36
2023-05-21T08:24:08.550Z,24.78
2023-05-21T08:27:12.906Z,24.72
2023-05-21T08:30:18.253Z,24.36
2023-05-21T08:33:23.795Z,24.22
2023-05-21T08:36:28.377Z,24.69
2023-05-21T08:39:33.113Z,24.44
2023-05-21T08:42:45.877Z,24.50
2023-05-21T08:45:57.701Z,24.63
2023-05-21T08:49:03.466Z,25.00
2023-05-21T08:52:13.792Z,24.92
2023-05-21T08:55:20.060Z,24.98
2023-05-21T08:58:30.037Z,24.92
2023-05-21T09:01:35.529Z,25.29
2023-05-21T09:04:41.938Z,25.32
2023-05-21T09:08:09.856Z,25.16
2023-05-21T09:11:16.975Z,25.27
2023-05-21T09:14:23.353Z,25.25
2023-05-21T09:17:27.200Z,25.56
2023-05-21T09:20:40.122Z,25.33
2023-05-21T09:23:44.827Z,25.59
2023-05-21T09:26:57.333Z,26.31
2023-05-21T09:30:13.172Z,26.56
2023-05-21T09:33:32.115Z,26.77
2023-05-21T09:36:38.612Z,26.63
2023-05-21T09:39:47.063Z,26.70
2023-05-21T09:42:58.089Z,26.43
2023-05-21T09:46:03.857Z,26.60
2023-05-21T09:49:25.785Z,26.32
2023-05-21T09:52:39.138Z,26.60
2023-05-21T09:55:43.386Z,26.27
2023-05-21T09:58:47.254Z,26.83
2023-05-21T10:01:53.220Z,26.48
2023-05-21T10:05:06.896Z,26.56
2023-05-21T10:08:13.271Z,26.43
2023-05-21T10:11:27.454Z,26.47
2023-05-21T10:14:33.419Z,26.37
2023-05-21T10:17:38.607Z,26.86
2023-05-21T10:20:47.105Z,26.68
2023-05-21T10:23:51.769Z,26.73
2023-05-21T10:26:54.850Z,26.80
2023-05-21T10:30:06.101Z,27.49
2023-05-21T10:33:10.139Z,27.04
2023-05-21T10:36:18.620Z,27.92
2023-05-21T10:39:32.078Z,27.91
2023-05-21T10:42:38.874Z,27.64
2023-05-21T10:45:51.154Z,27.96
2023-05-21T10:49:25.918Z,28.15
2023-05-21T10:53:10.852Z,27.71
2023-05-21T10:56:23.961Z,27.62
2023-05-21T10:59:51.120Z,27.25
2023-05-21T11:02:55.357Z,27.57
2023-05-21T11:06:06.835Z,27.88
2023-05-21T11:09:17.866Z,27.39
2023-05-21T11:12:26.849Z,27.58
2023-05-21T11:15:30.201Z,27.90
2023-05-21T11:18:40.080Z,28.26
2023-05-21T11:21:51.624Z,28.36
2023-05-21T11:25:03.427Z,27.63
2023-05-21T11:28:09.603Z,27.73
2023-05-21T11:31:30.937Z,27.82
2023-05-21T11:34:46.108Z,28.07
2023-05-21T11:37:54.175Z,27.18
2023-05-21T11:41:03.725Z,27.29
2023-05-21T11:44:11.801Z,27.68
2023-05-21T11:47:22.927Z,27.59
2023-05-21T11:50:34.279Z,27.45
2023-05-21T11:53:41.770Z,28.20
2023-05-21T11:56:48.475Z,28.41
2023-05-21T11:59:52.313Z,27.96
2023-05-21T12:03:09.928Z,27.56
2023-05-21T12:06:14.897Z,27.66
2023-05-21T12:09:18.940Z,27.54
2023-05-21T12:12:50.022Z,27.82
2023-05-21T12:15:59.179Z,28.19
2023-05-21T12:19:13.035Z,28.19
2023-05-21T12:22:19.694Z,28.23
2023-05-21T12:25:27.909Z,27.47
2023-05-21T12:28:40.927Z,27.43
2023-05-21T12:31:49.679Z,27.94
2023-05-21T12:34:54.904Z,27.81
2023-05-21T12:38:00.528Z,28.00
2023-05-21T12:41:12.071Z,28.09
2023-05-21T12:44:24.909Z,28.25
2023-05-21T12:47:28.869Z,28.29
2023-05-21T12:50:33.848Z,27.68
2023-05-21T12:53:40.826Z,27.57
2023-05-21T12:56:47.895Z,27.68
2023-05-21T13:00:00.252Z,27.59
2023-05-21T13:03:06.376Z,27.59
2023-05-21T13:06:11.524Z,28.14
2023-05-21T13:09:21.407Z,28.06
2023-05-21T13:12:28.133Z,27.78
2023-05-21T13:15:31.962Z,28.05
2023-05-21T13:18:35.109Z,28.04
2023-05-21T13:21:41.962Z,28.21
2023-05-21T13:24:54.062Z,27.30
2023-05-21T13:27:58.910Z,27.64
2023-05-21T13:31:03.603Z,27.40
2023-05-21T13:34:20.503Z,27.68
2023-05-21T13:37:23.828Z,27.35
2023-05-21T13:40:27.124Z,27.47
2023-05-21T13:43:58.143Z,27.95
2023-05-21T13:47:11.084Z,27.95
2023-05-21T13:50:19.104Z,27.42
2023-05-21T13:53:30.599Z,27.35
2023-05-21T13:56:33.952Z,27.44
2023-05-21T13:59:37.367Z,27.61
2023-05-21T14:02:56.393Z,27.42
2023-05-21T14:06:03.132Z,27.36
2023-05-21T14:09:06.766Z,27.39
2023-05-21T14:12:10.604Z,27.39
2023-05-21T14:15:17.196Z,27.08
2023-05-21T14:18:24.533Z,26.61
2023-05-21T14:21:28.076Z,26.46
2023-05-21T14:24:37.174Z,26.99
2023-05-21T14:27:48.149Z,27.24
2023-05-21T14:30:53.726Z,27.34
2023-05-21T14:33:58.333Z,27.41
2023-05-21T14:37:07.083Z,27.26
2023-05-21T14:40:12.358Z,27.47
2023-05-21T14:43:19.462Z,27.42
2023-05-21T14:46:24.714Z,27.53
2023-05-21T14:49:37.311Z,27.50
2023-05-21T14:52:43.276Z,27.41
2023-05-21T14:55:48.131Z,26.65
2023-05-21T14:58:52.269Z,26.62
2023-05-21T15:01:58.327Z,27.03
2023-05-21T15:05:03.377Z,26.81
2023-05-21T15:08:20.199Z,27.09
2023-05-21T15:11:24.059Z,26.98
2023-05-21T15:14:33.844Z,27.02
2023-05-21T15:17:37.282Z,26.87
2023-05-21T15:20:47.127Z,26.66
2023-05-21T15:23:54.310Z,26.59
2023-05-21T15:26:58.015Z,26.51
2023-05-21T15:30:03.215Z,26.71
2023-05-21T15:33:06.680Z,26.47
2023-05-21T15:36:12.723Z,26.46
2023-05-21T15:39:15.926Z,26.44
2023-05-21T15:42:32.297Z,26.42
2023-05-21T15:45:39.377Z,26.31
2023-05-21T15:48:42.769Z,26.30
2023-05-21T15:51:49.124Z,26.25
2023-05-21T15:54:54.196Z,26.18
2023-05-21T15:58:08.127Z,26.11
2023-05-21T16:01:17.233Z,26.07
2023-05-21T16:04:21.375Z,26.19
2023-05-21T16:07:27.153Z,26.02
2023-05-21T16:10:37.115Z,26.05
2023-05-21T16:13:43.741Z,26.10
2023-05-21T16:16:50.182Z,26.09
2023-05-21T16:20:00.271Z,26.00
2023-05-21T16:23:03.894Z,26.00
2023-05-21T16:26:09.926Z,25.99
2023-05-21T16:29:18.073Z,25.83
2023-05-21T16:32:23.771Z,25.75
2023-05-21T16:35:28.709Z,25.70
2023-05-21T16:38:41.168Z,25.64
2023-05-21T16:41:45.019Z,25.52
2023-05-21T16:44:53.112Z,25.52
2023-05-21T16:47:57.179Z,25.47
2023-05-21T16:51:02.138Z,25.40
2023-05-21T16:54:06.494Z,25.29
2023-05-21T16:57:10.391Z,25.24
2023-05-21T17:00:16.332Z,25.20
2023-05-21T17:03:26.384Z,25.09
2023-05-21T17:06:31.777Z,25.01
2023-05-21T17:09:36.134Z,24.92
2023-05-21T17:12:39.683Z,24.87
2023-05-21T17:15:56.196Z,24.78
2023-05-21T17:19:00.762Z,24.71
2023-05-21T17:22:11.497Z,24.67
2023-05-21T17:25:16.901Z,24.55
2023-05-21T17:28:27.099Z,24.49
2023-05-21T17:31:33.034Z,24.43
2023-05-21T17:34:38.081Z,24.38
2023-05-21T17:37:52.048Z,24.32
2023-05-21T17:40:59.465Z,24.23
2023-05-21T17:44:03.465Z,24.22
2023-05-21T17:47:09.441Z,24.11
2023-05-21T17:50:14.458Z,24.02
2023-05-21T17:53:24.137Z,23.89
2023-05-21T17:56:29.488Z,23.80
2023-05-21T17:59:39.080Z,23.66
2023-05-21T18:02:48.169Z,23.56
2023-05-21T18:05:58.073Z,23.42
2023-05-21T18:09:10.770Z,23.24
2023-05-21T18:12:15.159Z,23.06
2023-05-21T18:15:34.365Z,22.97
2023-05-21T18:18:40.170Z,22.82
2023-05-21T18:21:51.233Z,22.68
2023-05-21T18:25:03.292Z,22.52
2023-05-21T18:28:11.274Z,22.38
2023-05-21T18:31:20.126Z,22.21
2023-05-21T18:34:24.684Z,22.12
2023-05-21T18:37:30.161Z,21.97
2023-05-21T18:40:38.739Z,21.85
2023-05-21T18:43:44.539Z,21.80
2023-05-21T18:46:53.073Z,21.73
2023-05-21T18:50:05.167Z,21.64
2023-05-21T18:53:09.154Z,21.59
2023-05-21T18:56:15.129Z,21.46
2023-05-21T18:59:28.170Z,21.28
2023-05-21T19:02:35.440Z,21.10
2023-05-21T19:05:38.515Z,20.89
2023-05-21T19:08:47.094Z,20.73
2023-05-21T19:11:53.707Z,20.61
2023-05-21T19:14:59.206Z,20.48
2023-05-21T19:18:19.111Z,20.38
2023-05-21T19:21:26.091Z,20.24
2023-05-21T19:24:34.145Z,20.14
2023-05-21T19:27:41.082Z,20.04
2023-05-21T19:30:52.135Z,19.95
2023-05-21T19:33:56.468Z,19.89
2023-05-21T19:37:00.195Z,19.82
2023-05-21T19:40:12.493Z,19.77
2023-05-21T19:43:23.205Z,19.73
2023-05-21T19:46:28.282Z,19.68
2023-05-21T19:49:34.167Z,19.62
2023-05-21T19:52:46.096Z,19.54
2023-05-21T19:55:52.169Z,19.47
2023-05-21T19:59:01.040Z,19.40
2023-05-21T20:02:23.137Z,19.38
2023-05-21T20:05:38.127Z,19.38
2023-05-21T20:08:45.357Z,19.35
2023-05-21T20:11:55.109Z,19.32
2023-05-21T20:15:01.011Z,19.24
2023-05-21T20:18:09.331Z,19.16
2023-05-21T20:21:25.134Z,19.07
2023-05-21T20:24:43.281Z,19.00
2023-05-21T20:27:47.073Z,18.87
2023-05-21T20:31:00.182Z,18.73
2023-05-21T20:34:09.168Z,18.65
2023-05-21T20:37:14.165Z,18.60
2023-05-21T20:40:17.439Z,18.55
2023-05-21T20:43:21.754Z,18.46
2023-05-21T20:46:28.243Z,18.39
2023-05-21T20:49:33.380Z,18.35
2023-05-21T20:52:36.396Z,18.37
2023-05-21T20:55:46.440Z,18.37
2023-05-21T20:58:52.378Z,18.34
2023-05-21T21:01:55.871Z,18.33
2023-05-21T21:05:00.036Z,18.31
2023-05-21T21:08:05.963Z,18.31
2023-05-21T21:11:12.883Z,18.31
2023-05-21T21:14:15.935Z,18.30
2023-05-21T21:17:19.122Z,18.14
2023-05-21T21:20:22.693Z,18.02
2023-05-21T21:23:30.344Z,18.01
2023-05-21T21:26:34.181Z,17.93
2023-05-21T21:29:38.491Z,17.87
2023-05-21T21:32:41.725Z,17.82
2023-05-21T21:35:44.693Z,17.67
2023-05-21T21:38:51.149Z,17.66
2023-05-21T21:41:54.253Z,17.60
2023-05-21T21:44:57.662Z,17.55
2023-05-21T21:48:00.276Z,17.58
2023-05-21T21:51:05.032Z,17.61
2023-05-21T21:54:09.388Z,17.56
2023-05-21T21:57:14.383Z,17.47
2023-05-21T22:00:19.204Z,17.60
2023-05-21T22:03:22.228Z,17.68
2023-05-21T22:06:24.946Z,17.78
2023-05-21T22:09:28.101Z,17.82
2023-05-21T22:12:31.452Z,17.85
2023-05-21T22:15:37.271Z,17.93
2023-05-21T22:18:42.111Z,18.13
2023-05-21T22:21:46.381Z,18.28
2023-05-21T22:24:49.233Z,18.25
2023-05-21T22:27:52.790Z,18.21
2023-05-21T22:30:55.421Z,18.23
2023-05-21T22:33:59.145Z,18.25
2023-05-21T22:37:02.120Z,18.23
2023-05-21T22:40:09.269Z,18.22
2023-05-21T22:43:12.486Z,18.18
2023-05-21T22:46:15.348Z,18.20
2023-05-21T22:49:19.917Z,18.12
2023-05-21T22:52:23.006Z,18.08
2023-05-21T22:55:27.532Z,18.12
2023-05-21T22:58:30.738Z,18.06
2023-05-21T23:01:33.616Z,17.95
2023-05-21T23:04:44.018Z,17.79
2023-05-21T23:07:52.272Z,17.67
2023-05-21T23:10:55.714Z,17.53
2023-05-21T23:13:58.322Z,17.48
2023-05-21T23:17:04.621Z,17.37
2023-05-21T23:20:09.001Z,17.32
2023-05-21T23:23:11.904Z,17.31
2023-05-21T23:26:14.875Z,17.24
2023-05-21T23:29:20.362Z,17.17
2023-05-21T23:32:24.079Z,17.10
2023-05-21T23:35:27.234Z,17.10
2023-05-21T23:38:29.965Z,17.07
2023-05-21T23:41:32.836Z,17.04
2023-05-21T23:44:35.764Z,16.98
2023-05-21T23:47:38.911Z,16.98
2023-05-21T23:50:42.894Z,17.00
2023-05-21T23:53:47.157Z,16.95
2023-05-21T23:56:49.778Z,16.92
2023-05-21T23:59:55.155Z,16.88
